Head of Grassy, Kentucky
Current Conditions -  °F | °C
As of 4:30 AM on Tuesday 21 Oct 2014 (Local Time) from KSYM Reporting Station
Overcast Overcast  
Wind Chill: 52°   Ceiling: 6000
Heat Index: 52°   Visibility: 10mi
Dew Point: 48°   Wind: 6mph
Humidity: 88%   Direction: 240°WSW
Pressure: 29.94"   Gusts: NA
Location:  38.3825°N, 83.2613°W
Report Text: KSYM 210830Z AUTO 24005KT 10SM FEW036 FEW042 OVC060 11/09 A2994 RMK AO2
Loading
Personal Weather Stations






























Interactive Weather Map
Tropical Storm Tracking
New forecast layout! Learn more

10-Day Weather Forecast

Advertisements
Track Severe Weather on mobile